createdAt,value
2023-02-13T00:00:50.014Z,19.68
2023-02-13T00:01:49.982Z,19.71
2023-02-13T00:02:49.987Z,19.68
2023-02-13T00:03:50.005Z,19.73
2023-02-13T00:04:49.957Z,19.69
2023-02-13T00:05:49.935Z,19.68
2023-02-13T00:06:49.925Z,19.69
2023-02-13T00:07:49.919Z,19.69
2023-02-13T00:08:49.953Z,19.68
2023-02-13T00:09:49.899Z,19.69
2023-02-13T00:10:49.906Z,19.71
2023-02-13T00:11:49.888Z,19.68
2023-02-13T00:12:49.864Z,19.69
2023-02-13T00:13:49.851Z,19.69
2023-02-13T00:14:49.859Z,19.69
2023-02-13T00:15:49.844Z,19.66
2023-02-13T00:16:49.830Z,19.65
2023-02-13T00:17:49.881Z,19.66
2023-02-13T00:18:50.583Z,19.66
2023-02-13T00:19:49.791Z,19.65
2023-02-13T00:20:49.790Z,19.65
2023-02-13T00:21:49.786Z,19.66
2023-02-13T00:22:49.758Z,19.63
2023-02-13T00:23:49.746Z,19.63
2023-02-13T00:24:49.743Z,19.61
2023-02-13T00:25:49.733Z,19.61
2023-02-13T00:26:49.724Z,19.61
2023-02-13T00:27:49.711Z,19.63
2023-02-13T00:28:49.700Z,19.61
2023-02-13T00:29:49.679Z,19.59
2023-02-13T00:30:49.815Z,19.56
2023-02-13T00:31:49.868Z,19.59
2023-02-13T00:32:49.658Z,19.61
2023-02-13T00:33:49.647Z,19.56
2023-02-13T00:34:49.631Z,19.61
2023-02-13T00:35:49.623Z,19.58
2023-02-13T00:36:49.629Z,19.59
2023-02-13T00:37:49.596Z,19.59
2023-02-13T00:38:49.608Z,19.62
2023-02-13T00:39:49.567Z,19.61
2023-02-13T00:40:49.564Z,19.59
2023-02-13T00:41:49.566Z,19.61
2023-02-13T00:42:49.544Z,19.59
2023-02-13T00:43:49.541Z,19.59
2023-02-13T00:44:49.535Z,19.62
2023-02-13T00:45:49.511Z,19.58
2023-02-13T00:46:49.530Z,19.59
2023-02-13T00:47:49.481Z,19.61
2023-02-13T00:48:49.488Z,19.59
2023-02-13T00:49:49.481Z,19.62
2023-02-13T00:50:49.451Z,19.61
2023-02-13T00:51:49.462Z,19.61
2023-02-13T00:52:49.443Z,19.65
2023-02-13T00:53:49.439Z,19.59
2023-02-13T00:54:49.443Z,19.61
2023-02-13T00:55:49.404Z,19.61
2023-02-13T00:56:49.405Z,19.59
2023-02-13T00:57:49.375Z,19.58
2023-02-13T00:58:49.370Z,19.59
2023-02-13T00:59:50.993Z,19.58
2023-02-13T01:00:49.349Z,19.56
2023-02-13T01:01:49.398Z,19.55
2023-02-13T01:02:49.326Z,19.56
2023-02-13T01:03:49.410Z,19.56
2023-02-13T01:04:49.351Z,19.58
2023-02-13T01:05:49.298Z,19.56
2023-02-13T01:06:49.298Z,19.56
2023-02-13T01:07:55.801Z,19.58
2023-02-13T01:08:49.266Z,19.56
2023-02-13T01:09:49.258Z,19.56
2023-02-13T01:10:49.256Z,19.54
2023-02-13T01:11:49.228Z,19.55
2023-02-13T01:12:49.223Z,19.55
2023-02-13T01:13:49.212Z,19.56
2023-02-13T01:14:49.214Z,19.55
2023-02-13T01:15:49.242Z,19.50
2023-02-13T01:16:49.202Z,19.54
2023-02-13T01:17:49.164Z,19.50
2023-02-13T01:18:49.167Z,19.50
2023-02-13T01:19:49.159Z,19.48
2023-02-13T01:20:49.139Z,19.48
2023-02-13T01:21:49.145Z,19.51
2023-02-13T01:22:49.123Z,19.48
2023-02-13T01:23:49.119Z,19.50
2023-02-13T01:24:49.104Z,19.50
2023-02-13T01:25:49.082Z,19.50
2023-02-13T01:26:49.094Z,19.51
2023-02-13T01:27:49.067Z,19.50
2023-02-13T01:28:49.060Z,19.51
2023-02-13T01:29:49.054Z,19.54
2023-02-13T01:30:49.049Z,19.51
2023-02-13T01:31:49.179Z,19.54
2023-02-13T01:32:49.048Z,19.54
2023-02-13T01:33:49.029Z,19.54
2023-02-13T01:34:49.006Z,19.54
2023-02-13T01:35:48.985Z,19.50
2023-02-13T01:36:48.999Z,19.50
2023-02-13T01:37:48.955Z,19.48
2023-02-13T01:38:48.953Z,19.51
2023-02-13T01:39:48.932Z,19.48
2023-02-13T01:40:48.932Z,19.51
2023-02-13T01:41:48.918Z,19.48
2023-02-13T01:42:48.906Z,19.50
2023-02-13T01:43:48.900Z,19.48
2023-02-13T01:44:48.896Z,19.48
2023-02-13T01:45:48.869Z,19.50
2023-02-13T01:46:48.946Z,19.47
2023-02-13T01:47:48.852Z,19.48
2023-02-13T01:48:48.840Z,19.48
2023-02-13T01:49:48.825Z,19.46
2023-02-13T01:50:48.829Z,19.48
2023-02-13T01:51:48.804Z,19.46
2023-02-13T01:52:48.796Z,19.46
2023-02-13T01:53:48.781Z,19.47
2023-02-13T01:54:48.782Z,19.44
2023-02-13T01:55:48.767Z,19.46
2023-02-13T01:56:48.771Z,19.46
2023-02-13T01:57:48.736Z,19.47
2023-02-13T01:58:48.735Z,19.46
2023-02-13T01:59:48.739Z,19.46
2023-02-13T02:00:48.712Z,19.47
2023-02-13T02:01:48.841Z,19.44
2023-02-13T02:02:48.781Z,19.46
2023-02-13T02:03:48.675Z,19.48
2023-02-13T02:04:48.689Z,19.47
2023-02-13T02:05:48.688Z,19.46
2023-02-13T02:06:48.650Z,19.47
2023-02-13T02:07:48.682Z,19.47
2023-02-13T02:08:48.621Z,19.47
2023-02-13T02:09:48.612Z,19.46
2023-02-13T02:10:48.611Z,19.46
2023-02-13T02:11:48.590Z,19.46
2023-02-13T02:12:48.596Z,19.47
2023-02-13T02:13:48.589Z,19.44
2023-02-13T02:14:48.563Z,19.44
2023-02-13T02:15:48.588Z,19.46
2023-02-13T02:16:48.573Z,19.44
2023-02-13T02:17:48.529Z,19.44
2023-02-13T02:18:48.539Z,19.43
2023-02-13T02:19:48.507Z,19.44
2023-02-13T02:20:48.501Z,19.43
2023-02-13T02:21:48.494Z,19.43
2023-02-13T02:22:48.478Z,19.43
2023-02-13T02:23:48.465Z,19.39
2023-02-13T02:24:48.477Z,19.40
2023-02-13T02:25:48.449Z,19.40
2023-02-13T02:26:48.436Z,19.40
2023-02-13T02:27:48.463Z,19.39
2023-02-13T02:28:48.507Z,19.41
2023-02-13T02:29:48.414Z,19.40
2023-02-13T02:30:48.422Z,19.37
2023-02-13T02:31:48.428Z,19.40
2023-02-13T02:32:48.372Z,19.41
2023-02-13T02:33:48.363Z,19.40
2023-02-13T02:34:48.372Z,19.41
2023-02-13T02:35:48.346Z,19.39
2023-02-13T02:36:48.388Z,19.40
2023-02-13T02:37:48.339Z,19.37
2023-02-13T02:38:48.316Z,19.40
2023-02-13T02:39:48.315Z,19.40
2023-02-13T02:40:48.294Z,19.40
2023-02-13T02:41:48.310Z,19.37
2023-02-13T02:42:48.274Z,19.37
2023-02-13T02:43:48.288Z,19.37
2023-02-13T02:44:48.260Z,19.40
2023-02-13T02:45:48.292Z,19.39
2023-02-13T02:46:48.288Z,19.40
2023-02-13T02:47:48.215Z,19.39
2023-02-13T02:48:48.208Z,19.40
2023-02-13T02:49:48.199Z,19.40
2023-02-13T02:50:48.204Z,19.43
2023-02-13T02:51:48.195Z,19.41
2023-02-13T02:52:48.167Z,19.44
2023-02-13T02:53:48.195Z,19.43
2023-02-13T02:54:48.165Z,19.41
2023-02-13T02:55:48.175Z,19.41
2023-02-13T02:56:48.118Z,19.41
2023-02-13T02:57:48.115Z,19.40
2023-02-13T02:58:48.112Z,19.39
2023-02-13T02:59:48.077Z,19.40
2023-02-13T03:00:48.134Z,19.40
2023-02-13T03:01:48.059Z,19.41
2023-02-13T03:02:48.066Z,19.39
2023-02-13T03:03:48.109Z,19.39
2023-02-13T03:04:48.045Z,19.37
2023-02-13T03:05:48.030Z,19.40
2023-02-13T03:06:48.007Z,19.37
2023-02-13T03:07:48.018Z,19.37
2023-02-13T03:08:47.984Z,19.37
2023-02-13T03:09:47.973Z,19.40
2023-02-13T03:10:47.978Z,19.37
2023-02-13T03:11:47.963Z,19.41
2023-02-13T03:12:47.939Z,19.41
2023-02-13T03:13:47.947Z,19.43
2023-02-13T03:14:47.916Z,19.41
2023-02-13T03:15:47.915Z,19.41
2023-02-13T03:16:47.896Z,19.41
2023-02-13T03:17:47.898Z,19.43
2023-02-13T03:18:47.881Z,19.43
2023-02-13T03:19:47.870Z,19.40
2023-02-13T03:20:47.861Z,19.46
2023-02-13T03:21:47.862Z,19.41
2023-02-13T03:22:47.835Z,19.47
2023-02-13T03:23:47.839Z,19.46
2023-02-13T03:24:47.825Z,19.44
2023-02-13T03:25:47.801Z,19.44
2023-02-13T03:26:47.810Z,19.43
2023-02-13T03:27:47.789Z,19.41
2023-02-13T03:28:47.771Z,19.40
2023-02-13T03:29:47.780Z,19.43
2023-02-13T03:30:47.763Z,19.44
2023-02-13T03:31:47.821Z,19.46
2023-02-13T03:32:47.730Z,19.44
2023-02-13T03:33:47.719Z,19.46
2023-02-13T03:34:47.714Z,19.43
2023-02-13T03:35:47.741Z,19.44
2023-02-13T03:36:47.699Z,19.43
2023-02-13T03:37:47.682Z,19.44
2023-02-13T03:38:47.670Z,19.44
2023-02-13T03:39:47.664Z,19.46
2023-02-13T03:40:47.646Z,19.46
2023-02-13T03:41:47.631Z,19.44
2023-02-13T03:42:47.626Z,19.47
2023-02-13T03:43:47.610Z,19.44
2023-02-13T03:44:47.617Z,19.46
2023-02-13T03:45:47.706Z,19.44
2023-02-13T03:46:47.582Z,19.46
2023-02-13T03:47:47.572Z,19.46
2023-02-13T03:48:47.568Z,19.43
2023-02-13T03:49:47.551Z,19.44
2023-02-13T03:50:47.548Z,19.47
2023-02-13T03:51:47.526Z,19.46
2023-02-13T03:52:47.524Z,19.47
2023-02-13T03:53:47.505Z,19.46
2023-02-13T03:54:47.491Z,19.48
2023-02-13T03:55:47.486Z,19.48
2023-02-13T03:56:47.483Z,19.50
2023-02-13T03:57:47.475Z,19.47
2023-02-13T03:58:47.463Z,19.47
2023-02-13T03:59:47.441Z,19.48
2023-02-13T04:00:47.466Z,19.47
2023-02-13T04:01:47.426Z,19.46
2023-02-13T04:02:47.409Z,19.48
2023-02-13T04:03:47.410Z,19.46
2023-02-13T04:04:47.383Z,19.43
2023-02-13T04:05:47.378Z,19.41
2023-02-13T04:06:47.416Z,19.43
2023-02-13T04:07:47.357Z,19.41
2023-02-13T04:08:47.353Z,19.44
2023-02-13T04:09:47.337Z,19.43
2023-02-13T04:10:47.317Z,19.46
2023-02-13T04:11:47.315Z,19.47
2023-02-13T04:12:47.299Z,19.46
2023-02-13T04:13:47.305Z,19.47
2023-02-13T04:14:47.279Z,19.48
2023-02-13T04:15:47.276Z,19.48
2023-02-13T04:16:47.273Z,19.47
2023-02-13T04:17:47.256Z,19.46
2023-02-13T04:18:47.255Z,19.46
2023-02-13T04:19:47.234Z,19.47
2023-02-13T04:20:47.235Z,19.47
2023-02-13T04:21:47.224Z,19.44
2023-02-13T04:22:47.194Z,19.43
2023-02-13T04:23:47.207Z,19.44
2023-02-13T04:24:47.200Z,19.46
2023-02-13T04:25:47.178Z,19.46
2023-02-13T04:26:47.147Z,19.48
2023-02-13T04:27:47.190Z,19.48
2023-02-13T04:28:47.129Z,19.51
2023-02-13T04:29:47.173Z,19.51
2023-02-13T04:30:47.222Z,19.54
2023-02-13T04:31:47.257Z,19.50
2023-02-13T04:32:47.092Z,19.54
2023-02-13T04:33:47.078Z,19.54
2023-02-13T04:34:47.077Z,19.54
2023-02-13T04:35:47.057Z,19.54
2023-02-13T04:36:47.075Z,19.54
2023-02-13T04:37:47.047Z,19.55
2023-02-13T04:38:47.032Z,19.50
2023-02-13T04:39:47.025Z,19.54
2023-02-13T04:40:47.095Z,19.55
2023-02-13T04:41:47.002Z,19.58
2023-02-13T04:42:46.989Z,19.66
2023-02-13T04:43:46.981Z,19.81
2023-02-13T04:44:46.962Z,20.05
2023-02-13T04:45:47.042Z,20.32
2023-02-13T04:46:46.957Z,20.59
2023-02-13T04:47:46.945Z,20.88
2023-02-13T04:48:46.938Z,21.16
2023-02-13T04:49:46.951Z,21.43
2023-02-13T04:50:46.913Z,21.64
2023-02-13T04:51:46.909Z,21.82
2023-02-13T04:52:46.890Z,21.96
2023-02-13T04:53:46.875Z,22.14
2023-02-13T04:54:46.863Z,22.27
2023-02-13T04:55:46.848Z,22.40
2023-02-13T04:56:46.847Z,22.54
2023-02-13T04:57:46.827Z,22.62
2023-02-13T04:58:46.821Z,22.76
2023-02-13T04:59:46.817Z,22.94
2023-02-13T05:00:46.791Z,23.05
2023-02-13T05:01:46.984Z,23.15
2023-02-13T05:02:46.770Z,23.23
2023-02-13T05:03:46.767Z,23.31
2023-02-13T05:04:46.801Z,23.38
2023-02-13T05:05:46.742Z,23.46
2023-02-13T05:06:46.730Z,23.48
2023-02-13T05:07:46.738Z,23.53
2023-02-13T05:08:46.710Z,23.55
2023-02-13T05:09:46.700Z,23.61
2023-02-13T05:10:46.685Z,23.66
2023-02-13T05:11:46.678Z,23.79
2023-02-13T05:12:46.669Z,23.85
2023-02-13T05:13:46.669Z,23.93
2023-02-13T05:14:46.654Z,23.95
2023-02-13T05:15:46.678Z,23.97
2023-02-13T05:16:46.630Z,23.97
2023-02-13T05:17:46.613Z,23.95
2023-02-13T05:18:46.598Z,23.97
2023-02-13T05:19:46.602Z,23.97
2023-02-13T05:20:46.590Z,23.97
2023-02-13T05:21:46.576Z,23.95
2023-02-13T05:22:46.574Z,23.95
2023-02-13T05:23:46.551Z,23.94
2023-02-13T05:24:46.545Z,23.97
2023-02-13T05:25:46.536Z,23.97
2023-02-13T05:26:46.514Z,23.94
2023-02-13T05:27:46.514Z,23.97
2023-02-13T05:28:46.507Z,23.98
2023-02-13T05:29:46.486Z,23.98
2023-02-13T05:30:46.511Z,23.98
2023-02-13T05:31:46.558Z,24.02
2023-02-13T05:32:46.462Z,24.05
2023-02-13T05:33:46.452Z,24.09
2023-02-13T05:34:46.437Z,24.05
2023-02-13T05:35:46.421Z,24.06
2023-02-13T05:36:46.413Z,24.08
2023-02-13T05:37:46.409Z,24.06
2023-02-13T05:38:46.405Z,24.08
2023-02-13T05:39:46.408Z,24.09
2023-02-13T05:40:46.391Z,24.08
2023-02-13T05:41:46.360Z,24.10
2023-02-13T05:42:46.344Z,24.10
2023-02-13T05:43:46.370Z,24.08
2023-02-13T05:44:46.338Z,24.09
2023-02-13T05:45:46.327Z,24.10
2023-02-13T05:46:46.377Z,24.12
2023-02-13T05:47:46.303Z,24.18
2023-02-13T05:48:46.294Z,24.20
2023-02-13T05:49:46.292Z,24.21
2023-02-13T05:50:46.268Z,24.24
2023-02-13T05:51:46.267Z,24.30
2023-02-13T05:52:46.252Z,24.40
2023-02-13T05:53:46.243Z,24.43
2023-02-13T05:54:46.218Z,24.46
2023-02-13T05:55:46.230Z,24.46
2023-02-13T05:56:46.199Z,24.49
2023-02-13T05:57:46.202Z,24.49
2023-02-13T05:58:46.176Z,24.49
2023-02-13T05:59:46.179Z,24.45
2023-02-13T06:00:46.151Z,24.43
2023-02-13T06:01:46.160Z,24.46
2023-02-13T06:02:46.242Z,24.46
2023-02-13T06:03:46.203Z,24.50
2023-02-13T06:04:46.106Z,24.52
2023-02-13T06:05:46.104Z,24.50
2023-02-13T06:06:46.090Z,24.52
2023-02-13T06:07:46.095Z,24.52
2023-02-13T06:08:46.067Z,24.50
2023-02-13T06:09:46.067Z,24.47
2023-02-13T06:10:46.044Z,24.47
2023-02-13T06:11:46.048Z,24.45
2023-02-13T06:12:46.029Z,24.46
2023-02-13T06:13:46.052Z,24.47
2023-02-13T06:14:46.005Z,24.46
2023-02-13T06:15:45.998Z,24.47
2023-02-13T06:16:45.998Z,24.50
2023-02-13T06:17:45.986Z,24.50
2023-02-13T06:18:45.972Z,24.52
2023-02-13T06:19:45.910Z,24.50
2023-02-13T06:20:45.881Z,24.52
2023-02-13T06:21:45.937Z,24.52
2023-02-13T06:22:45.918Z,24.50
2023-02-13T06:23:45.921Z,24.52
2023-02-13T06:24:45.848Z,24.50
2023-02-13T06:25:45.892Z,24.52
2023-02-13T06:26:45.842Z,24.50
2023-02-13T06:27:45.814Z,24.49
2023-02-13T06:28:45.887Z,24.52
2023-02-13T06:29:45.793Z,24.57
2023-02-13T06:30:45.809Z,24.57
2023-02-13T06:31:45.854Z,24.57
2023-02-13T06:32:45.758Z,24.57
2023-02-13T06:33:45.768Z,24.57
2023-02-13T06:34:45.733Z,24.57
2023-02-13T06:35:45.735Z,24.55
2023-02-13T06:36:45.712Z,24.55
2023-02-13T06:37:45.810Z,24.55
2023-02-13T06:38:45.713Z,24.57
2023-02-13T06:39:45.701Z,24.61
2023-02-13T06:40:45.673Z,24.62
2023-02-13T06:41:45.674Z,24.62
2023-02-13T06:42:45.729Z,24.68
2023-02-13T06:43:45.672Z,24.71
2023-02-13T06:44:45.630Z,24.73
2023-02-13T06:45:45.622Z,24.80
2023-02-13T06:46:45.669Z,24.80
2023-02-13T06:47:45.620Z,24.77
2023-02-13T06:48:45.596Z,24.83
2023-02-13T06:49:45.583Z,24.87
2023-02-13T06:50:45.571Z,24.87
2023-02-13T06:51:45.568Z,24.91
2023-02-13T06:52:45.557Z,24.91
2023-02-13T06:53:45.541Z,24.95
2023-02-13T06:54:47.997Z,24.96
2023-02-13T06:55:45.524Z,25.02
2023-02-13T06:56:45.515Z,25.02
2023-02-13T06:57:45.505Z,25.05
2023-02-13T06:58:45.484Z,25.06
2023-02-13T06:59:45.474Z,25.05
2023-02-13T07:00:45.512Z,25.05
2023-02-13T07:01:45.458Z,25.03
2023-02-13T07:02:45.538Z,25.03
2023-02-13T07:03:45.434Z,25.02
2023-02-13T07:04:45.418Z,25.02
2023-02-13T07:05:45.428Z,25.00
2023-02-13T07:06:45.403Z,25.00
2023-02-13T07:07:45.392Z,25.02
2023-02-13T07:08:45.387Z,25.00
2023-02-13T07:09:45.395Z,24.98
2023-02-13T07:10:45.370Z,25.00
2023-02-13T07:11:45.370Z,25.00
2023-02-13T07:12:49.159Z,24.99
2023-02-13T07:13:45.334Z,24.99
2023-02-13T07:14:45.312Z,24.96
2023-02-13T07:15:45.342Z,24.98
2023-02-13T07:16:45.328Z,24.96
2023-02-13T07:17:45.351Z,24.98
2023-02-13T07:18:45.273Z,25.00
2023-02-13T07:19:45.285Z,25.02
2023-02-13T07:20:45.273Z,25.06
2023-02-13T07:21:45.243Z,25.08
2023-02-13T07:22:45.725Z,25.08
2023-02-13T07:23:45.230Z,25.09
2023-02-13T07:24:45.210Z,25.06
2023-02-13T07:25:45.233Z,25.08
2023-02-13T07:26:45.193Z,25.06
2023-02-13T07:27:45.174Z,25.06
2023-02-13T07:28:45.184Z,25.05
2023-02-13T07:29:45.179Z,25.00
2023-02-13T07:30:45.197Z,24.99
2023-02-13T07:31:45.185Z,24.98
2023-02-13T07:32:45.125Z,25.03
2023-02-13T07:33:45.126Z,25.05
2023-02-13T07:35:00.603Z,25.09
2023-02-13T07:35:45.125Z,25.13
2023-02-13T07:36:45.088Z,25.13
2023-02-13T07:37:45.068Z,25.15
2023-02-13T07:38:45.072Z,25.15
2023-02-13T07:39:45.085Z,25.15
2023-02-13T07:40:45.057Z,25.17
2023-02-13T07:41:45.055Z,25.15
2023-02-13T07:42:45.074Z,25.17
2023-02-13T07:43:45.012Z,25.17
2023-02-13T07:44:45.015Z,25.18
2023-02-13T07:45:44.987Z,25.18
2023-02-13T07:46:45.116Z,25.21
2023-02-13T07:47:44.973Z,25.23
2023-02-13T07:48:44.965Z,25.20
2023-02-13T07:49:44.944Z,25.21
2023-02-13T07:50:44.961Z,25.24
2023-02-13T07:51:44.935Z,25.21
2023-02-13T07:52:44.957Z,25.27
2023-02-13T07:53:44.906Z,25.28
2023-02-13T07:54:44.899Z,25.30
2023-02-13T07:55:44.887Z,25.27
2023-02-13T07:56:44.880Z,25.25
2023-02-13T07:57:44.880Z,25.30
2023-02-13T07:58:44.888Z,25.32
2023-02-13T07:59:44.840Z,25.35
2023-02-13T08:00:44.845Z,25.30
2023-02-13T08:01:44.858Z,25.28
2023-02-13T08:02:44.830Z,25.25
2023-02-13T08:03:44.821Z,25.21
2023-02-13T08:04:44.839Z,25.18
2023-02-13T08:05:44.783Z,25.17
2023-02-13T08:06:44.775Z,25.14
2023-02-13T08:07:44.756Z,25.10
2023-02-13T08:08:44.765Z,25.08
2023-02-13T08:09:44.782Z,25.08
2023-02-13T08:10:44.782Z,25.08
2023-02-13T08:11:44.730Z,25.08
2023-02-13T08:12:44.720Z,25.05
2023-02-13T08:13:44.723Z,25.05
2023-02-13T08:14:44.711Z,25.05
2023-02-13T08:15:44.701Z,25.02
2023-02-13T08:16:44.822Z,24.98
2023-02-13T08:17:44.719Z,24.99
2023-02-13T08:18:44.651Z,24.99
2023-02-13T08:19:44.665Z,25.03
2023-02-13T08:20:44.635Z,25.03
2023-02-13T08:21:44.606Z,25.05
2023-02-13T08:22:44.606Z,25.08
2023-02-13T08:23:44.669Z,25.08
2023-02-13T08:24:44.579Z,25.08
2023-02-13T08:25:44.584Z,25.05
2023-02-13T08:26:44.559Z,25.05
2023-02-13T08:27:44.566Z,25.08
2023-02-13T08:28:44.575Z,25.06
2023-02-13T08:29:44.543Z,25.13
2023-02-13T08:30:44.564Z,25.17
2023-02-13T08:31:44.554Z,25.17
2023-02-13T08:32:54.003Z,25.17
2023-02-13T08:33:44.494Z,25.18
2023-02-13T08:34:44.478Z,25.21
2023-02-13T08:35:44.458Z,25.23
2023-02-13T08:36:44.455Z,25.24
2023-02-13T08:37:46.600Z,25.27
2023-02-13T08:38:44.450Z,25.25
2023-02-13T08:39:44.456Z,25.21
2023-02-13T08:40:44.427Z,25.20
2023-02-13T08:41:44.387Z,25.14
2023-02-13T08:42:44.383Z,25.09
2023-02-13T08:43:44.380Z,25.08
2023-02-13T08:44:44.457Z,25.08
2023-02-13T08:45:44.378Z,25.08
2023-02-13T08:46:44.352Z,25.10
2023-02-13T08:47:44.334Z,25.14
2023-02-13T08:48:44.363Z,25.15
2023-02-13T08:49:44.303Z,25.14
2023-02-13T08:50:44.300Z,25.10
2023-02-13T08:51:44.300Z,25.14
2023-02-13T08:52:44.283Z,25.14
2023-02-13T08:53:44.281Z,25.13
2023-02-13T08:54:44.263Z,25.14
2023-02-13T08:55:44.241Z,25.10
2023-02-13T08:56:44.240Z,25.09
2023-02-13T08:57:44.226Z,25.06
2023-02-13T08:58:44.226Z,25.06
2023-02-13T08:59:44.207Z,25.06
2023-02-13T09:00:44.194Z,25.05
2023-02-13T09:01:44.250Z,25.03
2023-02-13T09:02:44.272Z,24.99
2023-02-13T09:03:44.258Z,25.02
2023-02-13T09:04:44.192Z,25.08
2023-02-13T09:05:44.137Z,25.08
2023-02-13T09:06:44.131Z,25.10
2023-02-13T09:07:44.126Z,25.10
2023-02-13T09:08:44.142Z,25.14
2023-02-13T09:09:44.113Z,25.15
2023-02-13T09:10:44.093Z,25.17
2023-02-13T09:11:44.075Z,25.17
2023-02-13T09:12:44.072Z,25.14
2023-02-13T09:13:44.071Z,25.10
2023-02-13T09:14:44.068Z,25.09
2023-02-13T09:15:44.041Z,25.10
2023-02-13T09:16:44.094Z,25.05
2023-02-13T09:17:44.064Z,25.06
2023-02-13T09:18:50.556Z,25.05
2023-02-13T09:19:44.015Z,25.02
2023-02-13T09:20:43.991Z,25.02
2023-02-13T09:21:43.978Z,25.06
2023-02-13T09:22:43.969Z,25.05
2023-02-13T09:23:43.994Z,25.00
2023-02-13T09:24:43.951Z,25.03
2023-02-13T09:25:43.933Z,25.08
2023-02-13T09:26:43.927Z,25.03
2023-02-13T09:27:43.937Z,25.08
2023-02-13T09:28:43.963Z,25.08
2023-02-13T09:29:43.894Z,25.06
2023-02-13T09:30:43.959Z,25.09
2023-02-13T09:31:44.006Z,25.08
2023-02-13T09:32:43.971Z,25.06
2023-02-13T09:33:43.848Z,25.05
2023-02-13T09:34:43.869Z,25.05
2023-02-13T09:35:43.847Z,25.02
2023-02-13T09:36:43.821Z,25.08
2023-02-13T09:37:43.875Z,25.10
2023-02-13T09:38:43.804Z,25.10
2023-02-13T09:39:43.799Z,25.06
2023-02-13T09:40:43.829Z,25.08
2023-02-13T09:41:43.780Z,25.08
2023-02-13T09:42:43.777Z,25.09
2023-02-13T09:43:43.751Z,25.18
2023-02-13T09:44:43.746Z,25.25
2023-02-13T09:45:43.739Z,25.36
2023-02-13T09:46:43.766Z,25.39
2023-02-13T09:47:43.696Z,25.47
2023-02-13T09:48:43.693Z,25.57
2023-02-13T09:49:43.695Z,25.64
2023-02-13T09:50:43.692Z,25.80
2023-02-13T09:51:43.659Z,26.02
2023-02-13T09:52:43.668Z,26.26
2023-02-13T09:53:43.667Z,26.45
2023-02-13T09:54:43.663Z,26.60
2023-02-13T09:55:43.637Z,26.67
2023-02-13T09:56:43.611Z,26.65
2023-02-13T09:57:43.596Z,26.57
2023-02-13T09:58:43.617Z,26.54
2023-02-13T09:59:43.590Z,26.51
2023-02-13T10:00:43.571Z,26.50
2023-02-13T10:01:43.581Z,26.47
2023-02-13T10:02:43.550Z,26.50
2023-02-13T10:03:43.529Z,26.51
2023-02-13T10:04:43.569Z,26.50
2023-02-13T10:05:43.523Z,26.48
2023-02-13T10:06:43.504Z,26.54
2023-02-13T10:07:43.493Z,26.50
2023-02-13T10:08:43.499Z,26.48
2023-02-13T10:09:43.910Z,26.48
2023-02-13T10:10:43.878Z,26.43
2023-02-13T10:11:43.773Z,26.40
2023-02-13T10:12:43.451Z,26.37
2023-02-13T10:13:43.427Z,26.37
2023-02-13T10:14:43.418Z,26.36
2023-02-13T10:15:43.465Z,26.35
2023-02-13T10:16:43.414Z,26.33
2023-02-13T10:17:43.478Z,26.30
2023-02-13T10:18:43.375Z,26.30
2023-02-13T10:19:43.423Z,26.32
2023-02-13T10:20:43.390Z,26.30
2023-02-13T10:21:43.391Z,26.32
2023-02-13T10:22:43.339Z,26.35
2023-02-13T10:23:43.325Z,26.39
2023-02-13T10:24:43.337Z,26.36
2023-02-13T10:25:43.294Z,26.30
2023-02-13T10:26:43.377Z,26.32
2023-02-13T10:27:43.277Z,26.33
2023-02-13T10:28:43.365Z,26.39
2023-02-13T10:29:43.279Z,26.44
2023-02-13T10:30:43.700Z,26.44
2023-02-13T10:31:43.692Z,26.45
2023-02-13T10:32:43.225Z,26.50
2023-02-13T10:33:43.226Z,26.54
2023-02-13T10:34:43.281Z,26.51
2023-02-13T10:35:43.204Z,26.54
2023-02-13T10:36:43.235Z,26.55
2023-02-13T10:37:43.238Z,26.52
2023-02-13T10:38:43.164Z,26.50
2023-02-13T10:39:43.223Z,26.50
2023-02-13T10:40:43.469Z,26.48
2023-02-13T10:41:43.158Z,26.51
2023-02-13T10:42:43.623Z,26.51
2023-02-13T10:43:44.480Z,26.50
2023-02-13T10:44:43.741Z,26.47
2023-02-13T10:45:43.472Z,26.45
2023-02-13T10:46:44.455Z,26.43
2023-02-13T10:47:43.221Z,26.40
2023-02-13T10:48:43.072Z,26.43
2023-02-13T10:49:44.021Z,26.39
2023-02-13T10:50:43.462Z,26.35
2023-02-13T10:51:43.942Z,26.30
2023-02-13T10:52:44.702Z,26.18
2023-02-13T10:53:43.523Z,26.10
2023-02-13T10:54:43.940Z,26.06
2023-02-13T10:55:44.056Z,26.07
2023-02-13T10:56:43.872Z,26.06
2023-02-13T10:57:43.150Z,26.05
2023-02-13T10:58:43.018Z,26.05
2023-02-13T10:59:47.193Z,26.06
2023-02-13T11:00:45.465Z,26.09
2023-02-13T11:01:43.086Z,26.06
2023-02-13T11:02:42.950Z,26.06
2023-02-13T11:03:43.007Z,26.01
2023-02-13T11:04:43.050Z,25.99
2023-02-13T11:05:43.054Z,25.98
2023-02-13T11:06:42.876Z,25.92
2023-02-13T11:07:42.880Z,25.90
2023-02-13T11:08:42.866Z,25.94
2023-02-13T11:09:42.938Z,25.95
2023-02-13T11:10:42.965Z,25.97
2023-02-13T11:11:42.857Z,25.97
2023-02-13T11:12:42.855Z,25.95
2023-02-13T11:13:42.820Z,25.92
2023-02-13T11:14:42.808Z,25.97
2023-02-13T11:15:42.978Z,25.97
2023-02-13T11:16:43.013Z,25.91
2023-02-13T11:17:42.975Z,25.91
2023-02-13T11:18:42.765Z,25.91
2023-02-13T11:19:42.750Z,25.90
2023-02-13T11:20:42.722Z,25.88
2023-02-13T11:21:42.712Z,25.83
2023-02-13T11:22:42.787Z,25.85
2023-02-13T11:23:42.682Z,25.83
2023-02-13T11:24:42.693Z,25.82
2023-02-13T11:25:42.656Z,25.82
2023-02-13T11:26:42.657Z,25.79
2023-02-13T11:27:42.660Z,25.76
2023-02-13T11:28:42.660Z,25.73
2023-02-13T11:29:42.627Z,25.70
2023-02-13T11:30:42.633Z,25.67
2023-02-13T11:31:42.790Z,25.62
2023-02-13T11:32:42.590Z,25.61
2023-02-13T11:33:42.618Z,25.60
2023-02-13T11:34:42.579Z,25.58
2023-02-13T11:35:42.564Z,25.60
2023-02-13T11:36:42.553Z,25.60
2023-02-13T11:37:42.540Z,25.55
2023-02-13T11:38:42.541Z,25.55
2023-02-13T11:39:42.514Z,25.55
2023-02-13T11:40:42.548Z,25.52
2023-02-13T11:41:42.500Z,25.55
2023-02-13T11:42:42.490Z,25.54
2023-02-13T11:43:42.464Z,25.54
2023-02-13T11:44:42.507Z,25.54
2023-02-13T11:45:42.464Z,25.54
2023-02-13T11:46:42.470Z,25.50
2023-02-13T11:47:42.428Z,25.42
2023-02-13T11:48:42.454Z,25.30
2023-02-13T11:51:24.950Z,25.03
2023-02-13T11:52:25.943Z,24.95
2023-02-13T11:53:25.924Z,24.85
2023-02-13T11:54:25.905Z,24.78
2023-02-13T11:55:25.917Z,24.73
2023-02-13T11:56:25.888Z,24.69
2023-02-13T11:57:25.891Z,24.68
2023-02-13T11:58:25.937Z,24.77
2023-02-13T11:59:25.852Z,24.78
2023-02-13T12:00:27.161Z,24.84
2023-02-13T12:01:25.835Z,24.87
2023-02-13T12:02:25.868Z,24.87
2023-02-13T12:03:25.985Z,24.90
2023-02-13T12:04:25.861Z,24.90
2023-02-13T12:05:25.798Z,24.91
2023-02-13T12:06:25.792Z,24.95
2023-02-13T12:07:25.787Z,24.95
2023-02-13T12:08:25.750Z,24.93
2023-02-13T12:09:25.766Z,24.93
2023-02-13T12:10:25.744Z,24.91
2023-02-13T12:11:25.727Z,24.93
2023-02-13T12:12:25.738Z,24.95
2023-02-13T12:13:25.722Z,24.93
2023-02-13T12:14:25.719Z,24.95
2023-02-13T12:15:25.710Z,24.99
2023-02-13T12:16:25.702Z,24.99
2023-02-13T12:17:31.699Z,25.00
2023-02-13T12:18:25.668Z,24.95
2023-02-13T12:19:25.650Z,24.93
2023-02-13T12:20:25.631Z,24.93
2023-02-13T12:21:25.640Z,24.95
2023-02-13T12:22:25.614Z,24.99
2023-02-13T12:23:25.608Z,24.99
2023-02-13T12:24:25.590Z,24.99
2023-02-13T12:25:25.590Z,24.99
2023-02-13T12:26:25.566Z,24.98
2023-02-13T12:27:25.569Z,24.96
2023-02-13T12:28:25.634Z,24.98
2023-02-13T12:29:25.776Z,24.96
2023-02-13T12:30:25.600Z,24.98
2023-02-13T12:31:25.563Z,24.98
2023-02-13T12:32:25.512Z,24.96
2023-02-13T12:33:25.505Z,24.98
2023-02-13T12:34:25.514Z,24.96
2023-02-13T12:35:25.470Z,24.98
2023-02-13T12:36:25.465Z,24.99
2023-02-13T12:37:25.459Z,24.99
2023-02-13T12:38:25.436Z,24.99
2023-02-13T12:39:25.441Z,24.98
2023-02-13T12:40:25.412Z,24.96
2023-02-13T12:41:25.433Z,24.96
2023-02-13T12:42:25.420Z,24.93
2023-02-13T12:43:25.397Z,24.88
2023-02-13T12:44:25.374Z,24.87
2023-02-13T12:45:25.364Z,24.87
2023-02-13T12:46:25.363Z,24.85
2023-02-13T12:47:25.341Z,24.83
2023-02-13T12:48:25.328Z,24.81
2023-02-13T12:49:25.363Z,24.81
2023-02-13T12:50:25.361Z,24.83
2023-02-13T12:51:25.301Z,24.84
2023-02-13T12:52:25.299Z,24.85
2023-02-13T12:53:25.291Z,24.84
2023-02-13T12:54:25.279Z,24.81